Capitol Logistics 7359

Operating for MZN



KTOL
Eugene F Kranz Toledo Express Airport
Toledo, Ohio
KTPA
Tampa International Airport
Tampa, Florida

Activity Log

Date Flight Route Aircraft Duration
No Flights Yet

Route Details

Aircraft Information
Primary: Boeing 737-800BCF
Backup: Boeing 757-200SF
Route Data
Distance: 822nm
Duration: 2h 10m
Recm'd Route: JECKA J43 ROD Q65 LORNN ATL HONID Q81 BULZI HEVVN FOOXX5
Origin Wx: KTOL 141852Z 25011G20KT 10SM BKN060 14/M01 A2997 RMK AO2 SLP151 T01441006
Dest. Wx: KTPA 141853Z 24008KT 10SM FEW050 29/16 A3007 RMK AO2 SLP180 T02940156 $
Notes: